Terminal Aerodrome Forecast
Issued by NWS Austin/San Antonio, TX

Home | Current Version | Previous Version | Text Only | Print | Product List | Glossary On
Versions: 1 2 3 4 5 6 7 8 9 10 11 12 13 14 15 16 17 18 19 20 21
000
FTUS44 KEWX 121700
TAFAUS
TAF
KAUS 121720Z 1218/1324 18010KT P6SM FEW030
     FM130900 VRB03KT P6SM SCT015 SCT040
     FM131400 19007KT P6SM SCT040=

USA.gov is the U.S. government's official web portal to all federal, state and local government web resources and services.